Time;durP1;ratioP1;P1;durP2;ratioP2;P2;SDS_P1;SDS_P2;PMS_P1;PMS_P2;Temp;Humidity;BMP_temperature;BMP_pressure;BME280_temperature;BME280_humidity;BME280_pressure;Samples;Min_cycle;Max_cycle;Signal;HPM_P1;HPM_P2
2022/01/05 00:00:34;;;;;;;4.43;2.90;;;;;;;5.47;86.56;96981.25;4968871;28;20038;-86
2022/01/05 00:02:59;;;;;;;7.82;2.85;;;;;;;5.43;86.13;96978.34;4968123;28;20460;-85
2022/01/05 00:05:25;;;;;;;7.75;2.75;;;;;;;5.38;85.25;96978.31;4969552;28;20548;-85
2022/01/05 00:07:50;;;;;;;7.47;2.95;;;;;;;5.33;85.32;96973.81;4988271;28;20110;-86
2022/01/05 00:10:16;;;;;;;10.10;2.53;;;;;;;5.36;85.12;97000.81;4937168;28;20035;-86
2022/01/05 00:12:41;;;;;;;5.40;2.30;;;;;;;5.30;85.52;96989.41;4971450;28;20031;-86
2022/01/05 00:15:09;;;;;;;11.23;2.55;;;;;;;5.24;84.79;96993.13;4971447;28;20473;-85
2022/01/05 00:17:34;;;;;;;4.97;2.38;;;;;;;5.23;84.42;96991.50;4953817;28;20042;-85
2022/01/05 00:20:00;;;;;;;6.97;2.22;;;;;;;5.17;84.21;97001.28;4954756;28;20551;-85
2022/01/05 00:22:25;;;;;;;7.18;2.05;;;;;;;5.14;83.88;97003.63;4972139;28;20030;-85
2022/01/05 00:24:51;;;;;;;14.38;1.98;;;;;;;5.01;84.28;96988.25;4956395;28;20023;-85
2022/01/05 00:27:16;;;;;;;11.07;2.38;;;;;;;5.08;84.19;97000.19;4939840;28;20495;-86
2022/01/05 00:29:42;;;;;;;8.13;2.47;;;;;;;5.05;83.90;96982.19;4955781;28;20038;-85
2022/01/05 00:32:08;;;;;;;7.00;1.85;;;;;;;5.04;84.19;96982.44;4939960;28;20042;-85
2022/01/05 00:34:34;;;;;;;6.53;2.20;;;;;;;5.04;84.09;96983.25;4975298;28;20121;-85
2022/01/05 00:37:00;;;;;;;12.38;2.17;;;;;;;5.04;84.27;96985.09;4957922;28;20126;-86
2022/01/05 00:39:25;;;;;;;7.40;1.83;;;;;;;4.99;83.69;96987.72;4965626;28;20138;-85
2022/01/05 00:41:51;;;;;;;7.35;2.05;;;;;;;4.98;84.21;96994.06;4958985;28;20372;-86
2022/01/05 00:44:16;;;;;;;10.05;2.15;;;;;;;4.97;83.61;96989.81;4959689;28;20052;-88
2022/01/05 00:46:42;;;;;;;9.00;1.80;;;;;;;4.97;83.70;96995.09;4975409;28;20027;-87
2022/01/05 00:49:07;;;;;;;5.57;1.65;;;;;;;4.98;83.93;96994.06;4975442;28;20034;-87
2022/01/05 00:51:32;;;;;;;3.75;1.70;;;;;;;4.95;84.13;96990.09;4942755;28;20022;-87
2022/01/05 00:53:58;;;;;;;4.63;2.30;;;;;;;4.95;84.42;96991.94;4943672;28;20035;-87
2022/01/05 00:56:23;;;;;;;6.85;2.05;;;;;;;4.91;84.35;96985.56;4943392;28;20031;-87
2022/01/05 00:58:49;;;;;;;8.90;1.70;;;;;;;4.93;84.45;96988.75;4960736;28;20045;-87
2022/01/05 01:01:14;;;;;;;6.07;2.10;;;;;;;4.94;84.63;96991.13;4990773;28;20189;-87
2022/01/05 01:03:39;;;;;;;6.22;1.80;;;;;;;4.93;84.20;96997.47;4958959;28;20715;-86
2022/01/05 01:06:05;;;;;;;9.20;2.53;;;;;;;4.80;84.62;96981.28;4975268;28;20053;-85
2022/01/05 01:08:31;;;;;;;5.18;1.80;;;;;;;4.28;83.90;96904.69;4955342;28;20124;-85
2022/01/05 01:10:57;;;;;;;5.88;1.80;;;;;;;4.89;84.14;96999.03;4942086;28;20137;-86
2022/01/05 01:13:23;;;;;;;4.72;1.40;;;;;;;4.54;84.34;96957.38;4989371;28;20019;-85
2022/01/05 01:15:49;;;;;;;8.77;1.48;;;;;;;4.88;84.48;97002.75;4973910;28;20034;-87
2022/01/05 01:18:16;;;;;;;5.18;1.90;;;;;;;4.91;84.33;97007.53;4971275;28;20019;-89
2022/01/05 01:20:42;;;;;;;10.18;2.78;;;;;;;4.89;84.40;97000.91;4959441;28;20031;-87
2022/01/05 01:23:07;;;;;;;8.82;1.98;;;;;;;4.86;84.56;97001.41;4958852;28;20077;-88
2022/01/05 01:25:33;;;;;;;13.98;2.70;;;;;;;4.86;84.58;97001.41;4959720;28;20376;-88
2022/01/05 01:27:59;;;;;;;4.90;1.88;;;;;;;4.84;84.57;97006.94;4975388;28;20030;-88
2022/01/05 01:30:24;;;;;;;6.47;1.77;;;;;;;4.84;84.64;97011.44;4955764;29;20055;-88
2022/01/05 01:32:50;;;;;;;8.07;2.40;;;;;;;4.85;85.05;97010.41;4968533;28;20487;-88
2022/01/05 01:35:15;;;;;;;5.32;1.77;;;;;;;4.85;84.59;97008.53;4943017;28;20035;-88
2022/01/05 01:37:41;;;;;;;5.68;2.28;;;;;;;4.77;84.45;96987.06;4959294;28;20034;-88
2022/01/05 01:40:08;;;;;;;13.30;2.60;;;;;;;4.76;84.86;96999.50;4974945;28;20026;-85
2022/01/05 01:42:34;;;;;;;4.75;2.78;;;;;;;4.81;84.37;97004.81;4956711;28;20055;-86
2022/01/05 01:45:00;;;;;;;7.85;2.88;;;;;;;4.83;84.34;97009.81;4952520;28;20491;-87
2022/01/05 01:47:26;;;;;;;9.07;2.50;;;;;;;4.81;84.85;96998.72;4959082;28;20038;-84
2022/01/05 01:49:51;;;;;;;11.27;4.03;;;;;;;4.58;83.87;96978.81;4960956;28;20047;-84
2022/01/05 01:52:17;;;;;;;12.60;3.28;;;;;;;4.75;84.13;97003.19;4961732;28;20054;-86
2022/01/05 01:54:43;;;;;;;7.75;2.83;;;;;;;4.57;84.08;96985.91;4990512;28;20043;-86
2022/01/05 01:57:08;;;;;;;6.38;3.55;;;;;;;4.73;83.79;97004.50;4985032;28;20031;-86
2022/01/05 01:59:35;;;;;;;7.95;2.90;;;;;;;4.71;83.91;97007.41;4973516;28;20031;-86
2022/01/05 02:02:01;;;;;;;11.85;3.03;;;;;;;4.61;84.14;96999.41;4966779;28;20030;-85
2022/01/05 02:04:26;;;;;;;9.35;3.45;;;;;;;4.70;83.80;97019.00;4959809;28;20045;-86
2022/01/05 02:06:52;;;;;;;9.05;3.38;;;;;;;4.67;83.43;97014.25;4987334;28;20035;-85
2022/01/05 02:09:18;;;;;;;12.10;3.13;;;;;;;4.64;83.49;97013.97;4957809;28;20093;-85
2022/01/05 02:11:44;;;;;;;8.90;3.08;;;;;;;4.62;84.20;97013.41;4956087;28;20034;-85
2022/01/05 02:14:09;;;;;;;9.55;2.88;;;;;;;4.61;83.83;97022.41;4948884;29;20035;-84
2022/01/05 02:16:40;;;;;;;7.78;3.20;;;;;;;4.60;83.22;97018.97;4976189;28;20038;-85
2022/01/05 02:19:05;;;;;;;8.85;3.33;;;;;;;4.56;83.66;97023.94;4983516;28;20476;-86
2022/01/05 02:21:33;;;;;;;6.85;2.38;;;;;;;4.22;83.79;96969.03;4957049;28;20023;-85
2022/01/05 02:24:00;;;;;;;4.70;2.58;;;;;;;4.45;83.74;97016.22;4973257;28;20027;-85
2022/01/05 02:26:26;;;;;;;8.48;2.63;;;;;;;4.49;84.08;97026.03;4940530;28;20027;-86
2022/01/05 02:28:52;;;;;;;9.27;3.55;;;;;;;4.47;83.96;97022.06;4957250;28;20081;-85
2022/01/05 02:31:17;;;;;;;10.90;3.08;;;;;;;4.46;83.79;97031.00;4973411;28;20034;-85
2022/01/05 02:33:43;;;;;;;12.60;2.83;;;;;;;4.45;83.15;97040.81;4972934;28;20052;-86
2022/01/05 02:36:12;;;;;;;11.57;2.72;;;;;;;3.82;83.88;96953.72;4956357;28;20134;-86
2022/01/05 02:38:37;;;;;;;9.07;2.63;;;;;;;4.13;83.38;97021.53;4966686;28;20031;-85
2022/01/05 02:41:08;;;;;;;5.70;2.65;;;;;;;4.32;83.82;97057.09;4965668;28;20174;-86
2022/01/05 02:43:35;;;;;;;13.43;2.50;;;;;;;3.82;83.40;96981.94;4987160;28;20026;-86
2022/01/05 02:46:01;;;;;;;4.90;1.98;;;;;;;4.28;83.58;97063.88;4973063;28;20108;-86
2022/01/05 02:48:27;;;;;;;13.20;2.72;;;;;;;4.23;83.42;97049.84;5037389;23;20077;-90
2022/01/05 02:50:59;;;;;;;5.28;2.50;;;;;;;4.21;83.27;97060.69;4973179;28;20062;-90
2022/01/05 02:53:25;;;;;;;7.45;2.38;;;;;;;4.18;83.27;97058.53;4981194;28;20064;-87
2022/01/05 02:55:51;;;;;;;8.73;2.30;;;;;;;4.12;83.35;97050.81;4959807;28;20054;-88
2022/01/05 02:58:17;;;;;;;7.80;2.28;;;;;;;4.16;83.59;97065.09;4976588;28;20494;-88
2022/01/05 03:00:43;;;;;;;6.22;2.35;;;;;;;4.13;83.44;97060.34;4992971;28;20117;-88
2022/01/05 03:03:09;;;;;;;4.85;2.78;;;;;;;4.11;83.44;97063.22;4968241;28;20079;-88
2022/01/05 03:05:34;;;;;;;4.53;3.50;;;;;;;4.10;83.71;97076.69;4960703;28;20050;-89
2022/01/05 03:08:00;;;;;;;6.80;2.88;;;;;;;4.08;83.24;97081.41;4993018;28;20088;-88
2022/01/05 03:10:25;;;;;;;5.15;1.90;;;;;;;4.05;83.87;97079.25;4960581;28;20065;-88
2022/01/05 03:12:51;;;;;;;5.78;3.25;;;;;;;3.86;82.77;97060.34;4976891;28;20037;-89
2022/01/05 03:15:16;;;;;;;8.90;2.85;;;;;;;4.03;83.40;97086.63;4977211;28;20076;-88
2022/01/05 03:17:43;;;;;;;6.15;2.70;;;;;;;3.97;83.68;97069.16;4993147;28;20034;-88
2022/01/05 03:20:10;;;;;;;4.82;2.70;;;;;;;3.98;83.33;97079.47;4960650;28;20033;-88
2022/01/05 03:22:36;;;;;;;7.57;2.40;;;;;;;3.99;83.71;97080.25;4975344;28;20030;-88
2022/01/05 03:25:04;;;;;;;3.83;2.33;;;;;;;3.98;83.91;97084.75;4993155;28;20027;-88
2022/01/05 03:27:29;;;;;;;6.68;2.88;;;;;;;3.98;83.70;97084.75;4986382;28;20022;-88
2022/01/05 03:29:56;;;;;;;3.92;2.67;;;;;;;3.99;83.74;97081.06;4992411;28;20036;-88
2022/01/05 03:32:29;;;;;;;3.20;2.35;;;;;;;3.94;83.66;97077.56;4992238;28;20518;-88
2022/01/05 03:34:54;;;;;;;2.80;2.33;;;;;;;4.01;84.13;97086.09;4992531;28;20030;-87
2022/01/05 03:37:20;;;;;;;3.75;2.50;;;;;;;3.99;84.18;97089.00;4976032;28;20566;-88
2022/01/05 03:39:45;;;;;;;3.22;2.25;;;;;;;4.01;83.75;97099.28;4973875;28;20030;-88
2022/01/05 03:42:11;;;;;;;2.95;2.42;;;;;;;4.00;84.16;97092.44;4991469;28;20117;-87
2022/01/05 03:44:36;;;;;;;3.95;2.88;;;;;;;3.96;84.13;97092.13;4972572;28;20122;-88
2022/01/05 03:47:02;;;;;;;3.65;2.47;;;;;;;4.02;83.54;97099.03;4957565;28;20033;-88
2022/01/05 03:49:28;;;;;;;6.38;3.05;;;;;;;3.97;83.79;97091.09;4974654;28;20084;-88
2022/01/05 03:51:53;;;;;;;4.78;3.13;;;;;;;3.98;83.67;97083.94;4992067;28;20026;-88
2022/01/05 03:54:22;;;;;;;5.78;2.78;;;;;;;4.00;83.61;97097.72;4991708;28;20092;-88
2022/01/05 03:56:51;;;;;;;4.03;2.58;;;;;;;3.98;84.08;97094.50;4973813;28;20031;-89
2022/01/05 03:59:17;;;;;;;4.55;2.80;;;;;;;4.00;84.13;97087.94;4982315;28;20169;-88
2022/01/05 04:01:43;;;;;;;4.93;2.30;;;;;;;4.00;83.96;97095.84;4988820;28;20510;-88
2022/01/05 04:04:09;;;;;;;7.00;3.05;;;;;;;3.89;83.69;97080.94;4991814;28;20057;-88
2022/01/05 04:06:35;;;;;;;4.18;2.90;;;;;;;3.98;83.46;97105.84;4972351;28;20027;-88
2022/01/05 04:09:00;;;;;;;4.03;3.35;;;;;;;3.90;83.79;97098.41;4977997;28;20034;-87
2022/01/05 04:11:25;;;;;;;7.25;3.53;;;;;;;3.98;83.81;97126.16;4976210;28;20502;-87
2022/01/05 04:13:51;;;;;;;6.47;2.60;;;;;;;3.87;84.00;97093.59;4963721;28;20036;-87
2022/01/05 04:16:16;;;;;;;9.32;3.20;;;;;;;3.99;83.70;97109.28;4961400;28;20030;-88
2022/01/05 04:18:42;;;;;;;7.05;2.67;;;;;;;3.96;84.19;97115.88;4975817;28;20031;-88
2022/01/05 04:21:07;;;;;;;8.20;3.65;;;;;;;3.94;83.81;97122.44;4991730;28;20030;-87
2022/01/05 04:23:33;;;;;;;13.77;3.63;;;;;;;3.93;83.63;97128.78;4995725;28;20089;-88
2022/01/05 04:25:58;;;;;;;8.38;4.07;;;;;;;3.84;83.43;97131.06;4976936;28;20034;-88
2022/01/05 04:28:23;;;;;;;8.35;4.10;;;;;;;3.92;83.99;97137.72;4962530;28;20034;-88
2022/01/05 04:30:49;;;;;;;7.63;3.70;;;;;;;3.85;83.93;97127.34;4963384;28;20537;-88
2022/01/05 04:33:14;;;;;;;8.60;3.38;;;;;;;3.88;83.59;97128.72;4979629;28;20026;-88
2022/01/05 04:35:40;;;;;;;9.27;3.25;;;;;;;3.87;83.41;97135.81;4961740;28;20443;-86
2022/01/05 04:38:05;;;;;;;9.98;3.40;;;;;;;3.83;83.70;97137.38;4988905;28;20030;-86
2022/01/05 04:40:31;;;;;;;11.43;3.85;;;;;;;3.87;83.22;97143.75;4957711;28;20117;-85
2022/01/05 04:42:57;;;;;;;8.23;3.90;;;;;;;3.85;83.67;97143.19;4995242;28;20110;-86
2022/01/05 04:45:23;;;;;;;18.23;4.20;;;;;;;3.78;83.70;97135.47;4978856;28;20073;-84
2022/01/05 04:47:48;;;;;;;12.68;3.92;;;;;;;3.76;83.50;97139.38;4979181;28;20518;-86
2022/01/05 04:50:15;;;;;;;16.30;4.30;;;;;;;3.74;83.81;97141.47;4977036;28;20402;-87
2022/01/05 04:52:41;;;;;;;7.25;3.38;;;;;;;3.73;83.60;97145.19;5004769;28;20077;-87
2022/01/05 04:55:08;;;;;;;7.53;4.05;;;;;;;3.80;83.08;97146.56;4975426;28;20097;-87
2022/01/05 04:57:33;;;;;;;15.60;5.00;;;;;;;3.76;83.65;97153.38;4991269;28;20030;-86
2022/01/05 04:59:59;;;;;;;10.43;3.78;;;;;;;3.76;83.42;97155.22;4966229;28;20076;-87
2022/01/05 05:02:24;;;;;;;10.65;4.72;;;;;;;3.73;83.31;97155.72;4992770;28;20118;-87
2022/01/05 05:04:50;;;;;;;9.75;4.32;;;;;;;3.72;83.19;97164.69;4995196;28;20080;-87
2022/01/05 05:07:15;;;;;;;15.60;3.60;;;;;;;3.74;83.53;97165.22;4978848;28;20058;-87
2022/01/05 05:09:40;;;;;;;11.27;4.13;;;;;;;3.76;82.81;97171.84;4985999;28;20089;-86
2022/01/05 05:12:07;;;;;;;10.95;3.92;;;;;;;3.71;83.22;97173.66;4978684;28;20152;-86
2022/01/05 05:14:32;;;;;;;12.95;5.00;;;;;;;3.68;82.80;97174.13;4953987;28;20023;-86
2022/01/05 05:16:57;;;;;;;13.70;4.38;;;;;;;3.69;83.07;97184.44;4978674;28;20380;-86
2022/01/05 05:19:23;;;;;;;18.08;5.05;;;;;;;3.70;82.84;97178.13;4977859;28;20045;-86
2022/01/05 05:21:48;;;;;;;8.40;4.00;;;;;;;3.64;82.88;97173.03;4978342;28;20495;-86
2022/01/05 05:24:15;;;;;;;10.20;4.53;;;;;;;3.70;82.78;97183.41;4978728;28;20039;-87
2022/01/05 05:26:41;;;;;;;14.60;4.63;;;;;;;3.69;82.92;97194.19;4962541;28;20040;-86
2022/01/05 05:29:07;;;;;;;15.20;4.88;;;;;;;3.69;82.41;97191.56;4975377;28;20176;-86
2022/01/05 05:31:34;;;;;;;15.27;4.80;;;;;;;3.64;82.25;97194.94;4986668;28;21746;-86
2022/01/05 05:34:00;;;;;;;22.83;5.68;;;;;;;3.63;82.50;97201.25;4994369;28;20426;-87
2022/01/05 05:36:28;;;;;;;13.57;5.15;;;;;;;3.63;82.55;97206.50;4994052;28;20030;-87
2022/01/05 05:38:54;;;;;;;18.20;5.70;;;;;;;3.65;82.37;97203.63;4994075;28;20031;-85
2022/01/05 05:41:19;;;;;;;9.52;5.03;;;;;;;3.57;82.87;97196.16;4958220;28;20037;-87
2022/01/05 05:43:45;;;;;;;18.67;8.07;;;;;;;3.44;82.62;97173.56;4991631;28;20372;-86
2022/01/05 05:46:10;;;;;;;14.25;5.97;;;;;;;3.58;82.71;97179.28;4978090;28;20037;-86
2022/01/05 05:48:36;;;;;;;21.23;8.70;;;;;;;3.62;82.44;97204.94;4977686;28;20045;-84
2022/01/05 05:51:01;;;;;;;13.95;7.18;;;;;;;3.57;82.54;97206.69;4973665;28;20035;-85
2022/01/05 05:53:27;;;;;;;17.20;7.00;;;;;;;3.59;82.27;97207.25;4977097;28;20023;-86
2022/01/05 05:55:52;;;;;;;21.58;7.30;;;;;;;3.63;83.16;97213.63;4977316;28;20034;-86
2022/01/05 05:58:17;;;;;;;13.57;8.52;;;;;;;3.55;82.05;97233.31;4974331;28;20094;-85
2022/01/05 06:00:43;;;;;;;19.80;8.60;;;;;;;3.50;81.68;97219.25;4962051;28;20030;-87
2022/01/05 06:03:08;;;;;;;19.00;7.78;;;;;;;3.55;81.56;97221.97;4958378;28;20039;-88
2022/01/05 06:05:34;;;;;;;14.02;7.78;;;;;;;3.50;81.63;97213.97;4961671;28;20027;-87
2022/01/05 06:07:59;;;;;;;13.55;8.57;;;;;;;3.50;81.07;97222.69;4977755;28;20037;-86
2022/01/05 06:10:25;;;;;;;14.32;7.28;;;;;;;3.49;81.23;97229.03;4976997;28;20069;-87
2022/01/05 06:12:50;;;;;;;17.67;7.03;;;;;;;3.45;80.93;97213.94;4977379;28;20556;-89
2022/01/05 06:15:16;;;;;;;11.88;7.15;;;;;;;3.19;80.86;97188.25;4958534;28;20027;-89
2022/01/05 06:17:41;;;;;;;19.60;7.65;;;;;;;3.43;80.46;97227.34;4960687;28;20502;-88
2022/01/05 06:20:09;;;;;;;14.63;7.35;;;;;;;3.42;80.15;97228.41;4977461;28;20092;-87
2022/01/05 06:22:39;;;;;;;15.05;6.57;;;;;;;3.40;80.17;97224.41;4993516;28;20038;-87
2022/01/05 06:25:05;;;;;;;18.85;7.55;;;;;;;3.38;80.04;97231.75;4960611;28;20479;-87
2022/01/05 06:27:31;;;;;;;17.40;7.88;;;;;;;3.41;80.40;97236.53;4992704;28;20459;-87
2022/01/05 06:30:06;;;;;;;15.95;7.30;;;;;;;3.39;80.05;97225.41;4961630;28;20061;-88
2022/01/05 06:32:34;;;;;;;17.45;7.72;;;;;;;3.38;80.04;97237.03;4962861;28;20058;-86
2022/01/05 06:35:00;;;;;;;17.00;6.95;;;;;;;3.33;79.41;97236.94;4993594;28;20054;-86
2022/01/05 06:37:46;;;;;;;13.70;6.55;;;;;;;3.28;80.09;97236.84;4961945;28;20042;-85
2022/01/05 06:40:13;;;;;;;14.32;5.88;;;;;;;3.29;79.66;97238.47;4993361;28;20038;-87
2022/01/05 06:42:39;;;;;;;18.23;6.28;;;;;;;3.24;79.83;97235.75;4993403;28;20033;-86
2022/01/05 06:45:06;;;;;;;20.20;6.30;;;;;;;3.24;79.39;97231.28;4993829;28;20030;-89
2022/01/05 06:47:31;;;;;;;15.98;6.82;;;;;;;3.24;79.92;97255.00;4977592;28;20042;-88
2022/01/05 06:49:57;;;;;;;17.65;6.55;;;;;;;3.19;79.62;97223.28;4961332;28;20048;-88
2022/01/05 06:52:22;;;;;;;16.70;5.63;;;;;;;3.25;79.73;97229.44;4977181;28;20027;-88
2022/01/05 06:54:48;;;;;;;11.35;5.68;;;;;;;3.14;79.62;97219.78;4993521;28;20470;-89
2022/01/05 06:57:13;;;;;;;13.20;5.85;;;;;;;3.24;79.58;97233.13;4977181;28;20534;-88
2022/01/05 06:59:39;;;;;;;12.02;5.07;;;;;;;3.12;79.88;97220.03;4961256;28;20026;-88
2022/01/05 07:02:05;;;;;;;8.80;5.85;;;;;;;3.11;79.81;97225.53;4961109;28;20490;-89
2022/01/05 07:04:31;;;;;;;19.95;6.20;;;;;;;2.99;79.45;97205.34;4977703;28;20662;-89
2022/01/05 07:06:56;;;;;;;15.48;7.00;;;;;;;2.98;79.06;97200.31;4977824;28;20038;-89
2022/01/05 07:09:22;;;;;;;16.23;6.72;;;;;;;2.96;79.16;97208.47;4961329;28;20030;-89
2022/01/05 07:11:47;;;;;;;11.80;4.88;;;;;;;3.16;78.91;97231.69;4993472;28;20022;-89
2022/01/05 07:14:13;;;;;;;13.88;6.13;;;;;;;2.87;78.74;97191.47;4961429;28;20030;-89
2022/01/05 07:16:38;;;;;;;14.98;5.43;;;;;;;2.84;78.51;97191.16;4977518;28;20037;-89
2022/01/05 07:19:04;;;;;;;18.70;6.25;;;;;;;2.93;78.42;97205.50;4976633;28;20041;-89
2022/01/05 07:21:33;;;;;;;16.52;5.18;;;;;;;2.81;78.40;97191.63;4977168;28;20395;-89
2022/01/05 07:24:02;;;;;;;18.40;5.40;;;;;;;2.89;78.15;97197.28;4977976;28;20037;-88
2022/01/05 07:26:27;;;;;;;20.92;5.25;;;;;;;2.98;78.16;97222.19;4977643;28;20030;-89
2022/01/05 07:28:54;;;;;;;24.40;6.78;;;;;;;2.52;77.43;97177.72;4977368;28;20048;-89
2022/01/05 07:31:19;;;;;;;16.55;5.55;;;;;;;2.83;77.47;97221.16;4961264;28;20034;-89
2022/01/05 07:33:45;;;;;;;15.73;5.18;;;;;;;2.88;77.33;97223.88;4993528;28;20426;-90
2022/01/05 07:36:11;;;;;;;15.77;5.13;;;;;;;2.92;77.61;97246.88;4976198;28;20070;-88
2022/01/05 07:38:37;;;;;;;16.58;5.13;;;;;;;2.93;77.44;97237.91;4960488;28;20545;-88
2022/01/05 07:41:02;;;;;;;13.80;5.30;;;;;;;2.91;77.59;97245.25;4956723;28;20039;-88
2022/01/05 07:43:28;;;;;;;12.65;4.97;;;;;;;2.90;77.12;97256.06;4941482;28;20047;-89
2022/01/05 07:45:54;;;;;;;13.60;5.30;;;;;;;2.88;77.24;97247.59;4956890;28;20039;-88
2022/01/05 07:48:20;;;;;;;11.57;4.53;;;;;;;2.82;76.95;97273.03;4957311;28;20505;-88
2022/01/05 07:50:45;;;;;;;13.88;4.30;;;;;;;2.81;77.04;97271.47;4972841;28;20089;-88
2022/01/05 07:53:11;;;;;;;17.20;5.68;;;;;;;2.81;77.21;97283.81;4957033;28;20034;-88
2022/01/05 07:55:37;;;;;;;10.13;4.30;;;;;;;2.75;76.56;97282.16;4962319;28;20418;-88
2022/01/05 07:58:03;;;;;;;14.75;4.95;;;;;;;2.70;76.53;97288.13;4992219;28;20502;-88
2022/01/05 08:00:28;;;;;;;11.10;4.60;;;;;;;2.73;76.61;97290.25;4992517;28;20054;-88
2022/01/05 08:02:54;;;;;;;16.77;4.35;;;;;;;2.68;76.63;97282.28;4956568;28;20272;-88
2022/01/05 08:05:19;;;;;;;16.65;4.60;;;;;;;2.70;76.94;97301.28;4957017;28;20030;-88
2022/01/05 08:07:45;;;;;;;20.08;4.75;;;;;;;2.66;77.22;97302.78;4956852;28;20035;-88
2022/01/05 08:10:11;;;;;;;15.93;4.30;;;;;;;2.69;76.62;97315.47;4973347;28;20395;-88
2022/01/05 08:12:36;;;;;;;12.60;4.88;;;;;;;2.70;76.99;97309.19;4957051;28;20122;-87
2022/01/05 08:15:02;;;;;;;9.50;4.20;;;;;;;2.68;76.96;97295.47;4955504;28;20384;-88
2022/01/05 08:17:28;;;;;;;13.10;3.80;;;;;;;2.65;76.98;97288.00;4955640;28;20046;-88
2022/01/05 08:19:53;;;;;;;11.27;4.63;;;;;;;2.67;77.15;97301.75;4957010;28;20403;-88
2022/01/05 08:22:18;;;;;;;14.63;5.20;;;;;;;2.59;77.09;97304.78;4976038;28;20026;-88
2022/01/05 08:24:44;;;;;;;15.43;6.07;;;;;;;2.72;76.59;97316.84;4960094;28;20030;-88
2022/01/05 08:27:09;;;;;;;7.03;4.20;;;;;;;2.59;76.98;97317.13;4976273;28;20089;-88
2022/01/05 08:29:35;;;;;;;14.85;4.00;;;;;;;2.62;76.65;97321.94;4976758;28;20038;-88
2022/01/05 08:32:02;;;;;;;8.35;3.80;;;;;;;2.60;76.86;97334.53;4960444;28;20034;-90
2022/01/05 08:34:30;;;;;;;9.57;3.90;;;;;;;2.63;76.99;97345.41;4976368;28;20026;-88
2022/01/05 08:36:56;;;;;;;12.82;4.68;;;;;;;2.62;76.90;97356.94;4992009;28;20073;-89
2022/01/05 08:39:23;;;;;;;29.05;8.30;;;;;;;2.63;76.71;97350.66;4968235;28;20026;-89
2022/01/05 08:41:49;;;;;;;16.08;4.63;;;;;;;2.63;77.15;97350.66;4957569;28;20110;-88
2022/01/05 08:44:15;;;;;;;14.15;4.38;;;;;;;2.65;77.32;97358.31;4957659;28;20426;-88
2022/01/05 08:46:40;;;;;;;18.10;4.53;;;;;;;2.64;77.43;97360.19;4957650;28;20030;-88
2022/01/05 08:49:05;;;;;;;17.88;4.75;;;;;;;2.69;77.34;97357.63;4981069;23;20046;-85
2022/01/05 08:51:31;;;;;;;14.80;4.05;;;;;;;2.71;77.71;97352.13;4954475;28;20398;-86
2022/01/05 08:53:56;;;;;;;11.05;3.50;;;;;;;2.70;77.61;97359.22;4957013;28;20042;-85
2022/01/05 08:56:23;;;;;;;9.63;3.53;;;;;;;2.74;77.34;97359.56;4971901;28;20120;-85
2022/01/05 08:58:50;;;;;;;13.20;3.33;;;;;;;2.72;77.47;97365.06;4955421;28;20479;-84
2022/01/05 09:01:15;;;;;;;20.50;4.25;;;;;;;2.71;77.25;97355.53;4987392;28;20035;-86
2022/01/05 09:03:41;;;;;;;20.85;4.28;;;;;;;2.71;77.23;97371.34;4974878;28;20031;-84
2022/01/05 09:06:07;;;;;;;15.52;3.65;;;;;;;2.75;76.96;97371.69;4974329;28;20035;-85
2022/01/05 09:08:37;;;;;;;12.85;3.75;;;;;;;2.73;76.36;97371.91;4971450;28;20031;-86
2022/01/05 09:11:02;;;;;;;8.15;3.10;;;;;;;2.75;77.13;97372.47;4972034;28;20476;-86
2022/01/05 09:13:28;;;;;;;12.68;4.00;;;;;;;2.70;77.16;97372.41;4971896;28;20042;-84
2022/01/05 09:15:54;;;;;;;12.55;3.72;;;;;;;2.75;77.10;97367.22;4970845;28;20034;-86
2022/01/05 09:18:19;;;;;;;9.55;3.80;;;;;;;2.79;77.32;97373.63;4955489;28;20035;-85
2022/01/05 09:20:45;;;;;;;14.18;3.83;;;;;;;2.83;77.07;97371.31;4983495;28;20085;-86
2022/01/05 09:23:10;;;;;;;11.73;3.35;;;;;;;2.83;77.04;97366.06;4961129;28;20122;-86
2022/01/05 09:25:36;;;;;;;14.45;3.33;;;;;;;2.64;76.85;97341.75;4961655;28;20031;-86
2022/01/05 09:28:02;;;;;;;10.05;3.60;;;;;;;2.82;77.04;97367.06;4979958;28;20122;-86
2022/01/05 09:30:28;;;;;;;19.10;4.15;;;;;;;2.83;76.93;97355.50;4975637;28;20030;-87
2022/01/05 09:32:54;;;;;;;9.07;3.00;;;;;;;2.25;77.47;97258.28;4994157;28;20077;-86
2022/01/05 09:35:22;;;;;;;11.57;3.95;;;;;;;2.86;76.33;97355.81;4974880;28;20034;-86
2022/01/05 09:38:22;;;;;;;15.70;4.13;;;;;;;2.71;76.38;97336.34;4961670;28;20038;-87
2022/01/05 09:43:21;;;;;;;6.85;2.85;;;;;;;2.91;76.04;97361.19;4964618;28;20038;-86
2022/01/05 09:46:16;;;;;;;10.02;3.22;;;;;;;2.88;76.23;97358.25;4997420;28;20023;-86
2022/01/05 09:48:41;;;;;;;10.52;3.00;;;;;;;2.90;76.68;97350.91;4973729;28;20387;-86
2022/01/05 09:51:12;;;;;;;10.43;3.40;;;;;;;2.89;77.01;97346.66;4994351;28;20027;-85
2022/01/05 09:53:38;;;;;;;13.48;3.67;;;;;;;2.82;76.89;97338.91;4994193;28;20030;-86
2022/01/05 09:56:05;;;;;;;10.00;3.00;;;;;;;2.90;76.66;97335.91;4978444;28;20026;-86
2022/01/05 09:58:31;;;;;;;10.77;2.83;;;;;;;2.59;76.44;97294.22;4962358;28;20073;-86
2022/01/05 10:00:57;;;;;;;8.65;3.03;;;;;;;2.82;77.15;97328.38;4982715;28;20502;-84
2022/01/05 10:03:23;;;;;;;15.35;3.55;;;;;;;2.90;76.83;97330.63;4961254;28;20030;-85
2022/01/05 10:05:49;;;;;;;11.35;3.40;;;;;;;2.93;76.85;97334.59;4960602;28;20027;-84
2022/01/05 10:08:14;;;;;;;8.98;2.88;;;;;;;2.65;76.64;97285.38;4975885;28;20033;-84
2022/01/05 10:10:41;;;;;;;10.13;3.55;;;;;;;2.91;76.96;97334.03;4975648;28;20391;-84
2022/01/05 10:13:07;;;;;;;12.38;3.40;;;;;;;2.85;76.90;97329.72;4990696;28;20118;-84
2022/01/05 10:15:33;;;;;;;11.10;3.00;;;;;;;2.93;76.80;97339.88;4973063;28;20118;-83
2022/01/05 10:18:37;;;;;;;16.80;3.40;;;;;;;2.92;77.04;97331.19;4990592;28;20126;-85
2022/01/05 10:21:06;;;;;;;9.05;2.80;;;;;;;2.94;76.64;97336.22;4980232;28;20503;-84
2022/01/05 10:23:38;;;;;;;10.93;3.08;;;;;;;2.98;76.64;97340.78;4974166;28;20085;-84
2022/01/05 10:26:26;;;;;;;12.07;3.28;;;;;;;2.94;76.84;97350.19;4985535;28;20847;-84
2022/01/05 10:28:54;;;;;;;12.77;3.72;;;;;;;2.99;76.45;97346.84;4972110;28;20431;-83
2022/01/05 10:31:23;;;;;;;12.95;3.83;;;;;;;3.01;77.00;97356.09;4974728;28;20030;-85
2022/01/05 10:33:49;;;;;;;9.65;3.30;;;;;;;3.04;77.25;97345.09;4939412;28;20031;-85
2022/01/05 10:36:15;;;;;;;16.42;4.88;;;;;;;3.10;77.10;97345.19;4973695;28;20118;-84
2022/01/05 10:38:57;;;;;;;13.40;3.97;;;;;;;3.00;76.47;97330.81;4973843;28;20127;-84
2022/01/05 10:41:26;;;;;;;12.80;4.82;;;;;;;3.16;76.66;97345.03;4959645;28;20506;-85
2022/01/05 10:44:18;;;;;;;10.38;3.30;;;;;;;3.17;76.60;97340.56;4971946;28;20027;-85
2022/01/05 10:46:45;;;;;;;11.90;4.63;;;;;;;3.17;76.41;97346.63;4986471;28;20027;-84
2022/01/05 10:49:22;;;;;;;11.23;3.53;;;;;;;3.19;76.10;97351.69;4988720;28;20027;-84
2022/01/05 10:51:47;;;;;;;9.05;4.50;;;;;;;3.22;76.76;97356.47;4971766;28;20041;-83
2022/01/05 10:54:18;;;;;;;9.50;3.78;;;;;;;3.23;77.00;97355.44;4955281;29;20035;-84
2022/01/05 10:56:44;;;;;;;11.90;4.30;;;;;;;3.24;76.73;97352.56;4959370;28;20113;-82
2022/01/05 10:59:11;;;;;;;15.50;4.43;;;;;;;3.21;76.80;97360.94;4990704;28;20117;-85
2022/01/05 11:01:39;;;;;;;9.68;4.80;;;;;;;3.22;77.34;97361.72;4973735;28;20038;-84
2022/01/05 11:04:22;;;;;;;12.80;4.75;;;;;;;3.17;77.21;97362.44;4989356;28;20046;-83
2022/01/05 11:07:02;;;;;;;15.27;4.93;;;;;;;3.12;78.09;97357.09;4989043;28;20035;-84
2022/01/05 11:09:28;;;;;;;12.50;4.28;;;;;;;3.13;78.33;97358.69;4989232;28;20113;-85
2022/01/05 11:11:54;;;;;;;15.20;5.20;;;;;;;3.11;78.41;97358.13;4968872;28;20126;-84
2022/01/05 11:14:38;;;;;;;16.23;4.38;;;;;;;3.01;78.86;97350.84;4973453;28;20125;-84
2022/01/05 11:17:05;;;;;;;21.70;5.88;;;;;;;3.09;78.63;97354.94;4972499;28;20442;-83
2022/01/05 11:19:33;;;;;;;12.27;4.85;;;;;;;2.70;79.21;97288.13;4958003;28;20499;-84
2022/01/05 11:22:02;;;;;;;14.32;4.40;;;;;;;3.00;79.03;97328.16;4972507;28;20034;-84
2022/01/05 11:24:38;;;;;;;9.63;4.90;;;;;;;3.00;79.69;97330.00;4989521;28;20559;-83
2022/01/05 11:27:06;;;;;;;12.73;4.22;;;;;;;2.83;80.31;97305.47;4970764;28;20031;-85
2022/01/05 11:29:33;;;;;;;9.73;4.88;;;;;;;2.68;80.25;97273.56;4969433;28;20066;-85
2022/01/05 11:32:01;;;;;;;15.15;6.35;;;;;;;3.04;80.62;97320.56;4965867;28;20027;-85
2022/01/05 11:34:28;;;;;;;13.00;5.05;;;;;;;3.07;81.02;97319.31;4957839;28;20031;-84
2022/01/05 11:36:54;;;;;;;10.80;5.15;;;;;;;3.10;81.13;97309.09;4972891;28;20030;-82